sensor_id;sensor_type;location;lat;lon;timestamp;temperature;humidity
40636;DHT22;26642;55.766;37.828;2023-04-25T00:01:39;20.80;43.40
40636;DHT22;26642;55.766;37.828;2023-04-25T00:04:05;20.80;43.40
40636;DHT22;26642;55.766;37.828;2023-04-25T00:06:32;20.80;43.40
40636;DHT22;26642;55.766;37.828;2023-04-25T00:08:58;20.70;43.40
40636;DHT22;26642;55.766;37.828;2023-04-25T00:11:24;20.70;43.50
40636;DHT22;26642;55.766;37.828;2023-04-25T00:13:50;20.80;43.60
40636;DHT22;26642;55.766;37.828;2023-04-25T00:16:16;20.70;43.50
40636;DHT22;26642;55.766;37.828;2023-04-25T00:18:43;20.70;43.80
40636;DHT22;26642;55.766;37.828;2023-04-25T00:21:09;20.70;43.70
40636;DHT22;26642;55.766;37.828;2023-04-25T00:23:34;20.70;43.90
40636;DHT22;26642;55.766;37.828;2023-04-25T00:26:04;20.70;44.10
40636;DHT22;26642;55.766;37.828;2023-04-25T00:28:30;20.70;44.60
40636;DHT22;26642;55.766;37.828;2023-04-25T00:30:56;20.70;44.20
40636;DHT22;26642;55.766;37.828;2023-04-25T00:33:22;20.70;44.10
40636;DHT22;26642;55.766;37.828;2023-04-25T00:35:48;20.70;44.10
40636;DHT22;26642;55.766;37.828;2023-04-25T00:38:14;20.70;44.30
40636;DHT22;26642;55.766;37.828;2023-04-25T00:40:40;20.70;44.20
40636;DHT22;26642;55.766;37.828;2023-04-25T00:43:09;20.70;44.20
40636;DHT22;26642;55.766;37.828;2023-04-25T00:45:38;20.70;44.20
40636;DHT22;26642;55.766;37.828;2023-04-25T00:48:05;20.70;44.30
40636;DHT22;26642;55.766;37.828;2023-04-25T00:50:33;20.70;44.50
40636;DHT22;26642;55.766;37.828;2023-04-25T00:52:59;20.70;44.50
40636;DHT22;26642;55.766;37.828;2023-04-25T00:55:26;20.70;44.60
40636;DHT22;26642;55.766;37.828;2023-04-25T00:57:52;20.70;44.70
40636;DHT22;26642;55.766;37.828;2023-04-25T01:00:19;20.70;44.70
40636;DHT22;26642;55.766;37.828;2023-04-25T01:02:47;20.60;44.70
40636;DHT22;26642;55.766;37.828;2023-04-25T01:05:13;20.70;44.60
40636;DHT22;26642;55.766;37.828;2023-04-25T01:07:39;20.70;44.90
40636;DHT22;26642;55.766;37.828;2023-04-25T01:10:07;20.60;44.70
40636;DHT22;26642;55.766;37.828;2023-04-25T01:12:33;20.70;44.90
40636;DHT22;26642;55.766;37.828;2023-04-25T01:14:59;20.70;44.90
40636;DHT22;26642;55.766;37.828;2023-04-25T01:17:25;20.60;45.00
40636;DHT22;26642;55.766;37.828;2023-04-25T01:19:53;20.70;45.00
40636;DHT22;26642;55.766;37.828;2023-04-25T01:22:19;20.60;45.00
40636;DHT22;26642;55.766;37.828;2023-04-25T01:24:46;20.60;45.20
40636;DHT22;26642;55.766;37.828;2023-04-25T01:27:12;20.60;45.30
40636;DHT22;26642;55.766;37.828;2023-04-25T01:29:39;20.60;45.20
40636;DHT22;26642;55.766;37.828;2023-04-25T01:32:06;20.60;45.30
40636;DHT22;26642;55.766;37.828;2023-04-25T01:34:32;20.50;45.40
40636;DHT22;26642;55.766;37.828;2023-04-25T01:37:00;20.60;45.50
40636;DHT22;26642;55.766;37.828;2023-04-25T01:39:29;20.50;45.50
40636;DHT22;26642;55.766;37.828;2023-04-25T01:41:55;20.50;45.50
40636;DHT22;26642;55.766;37.828;2023-04-25T01:44:21;20.50;45.70
40636;DHT22;26642;55.766;37.828;2023-04-25T01:46:47;20.50;45.70
40636;DHT22;26642;55.766;37.828;2023-04-25T01:49:13;20.50;45.70
40636;DHT22;26642;55.766;37.828;2023-04-25T01:51:41;20.50;45.70
40636;DHT22;26642;55.766;37.828;2023-04-25T01:54:08;20.40;45.80
40636;DHT22;26642;55.766;37.828;2023-04-25T01:56:37;20.40;45.80
40636;DHT22;26642;55.766;37.828;2023-04-25T01:59:05;20.50;45.40
40636;DHT22;26642;55.766;37.828;2023-04-25T02:02:03;20.40;45.10
40636;DHT22;26642;55.766;37.828;2023-04-25T02:04:31;20.30;45.00
40636;DHT22;26642;55.766;37.828;2023-04-25T02:06:57;20.30;44.90
40636;DHT22;26642;55.766;37.828;2023-04-25T02:09:31;20.30;45.10
40636;DHT22;26642;55.766;37.828;2023-04-25T02:11:58;20.20;44.90
40636;DHT22;26642;55.766;37.828;2023-04-25T02:14:34;20.20;44.90
40636;DHT22;26642;55.766;37.828;2023-04-25T02:17:20;20.10;44.80
40636;DHT22;26642;55.766;37.828;2023-04-25T02:19:47;20.10;44.80
40636;DHT22;26642;55.766;37.828;2023-04-25T02:22:13;20.00;44.70
40636;DHT22;26642;55.766;37.828;2023-04-25T02:24:39;20.00;44.70
40636;DHT22;26642;55.766;37.828;2023-04-25T02:27:05;19.90;44.80
40636;DHT22;26642;55.766;37.828;2023-04-25T02:29:31;19.90;44.70
40636;DHT22;26642;55.766;37.828;2023-04-25T02:31:57;19.90;44.80
40636;DHT22;26642;55.766;37.828;2023-04-25T02:34:25;19.90;44.80
40636;DHT22;26642;55.766;37.828;2023-04-25T02:36:51;19.80;44.70
40636;DHT22;26642;55.766;37.828;2023-04-25T02:39:17;19.80;44.80
40636;DHT22;26642;55.766;37.828;2023-04-25T02:41:43;19.80;45.00
40636;DHT22;26642;55.766;37.828;2023-04-25T02:44:09;19.80;45.10
40636;DHT22;26642;55.766;37.828;2023-04-25T02:46:37;19.70;45.20
40636;DHT22;26642;55.766;37.828;2023-04-25T02:49:03;19.80;45.30
40636;DHT22;26642;55.766;37.828;2023-04-25T02:51:29;19.70;45.20
40636;DHT22;26642;55.766;37.828;2023-04-25T02:53:56;19.70;45.20
40636;DHT22;26642;55.766;37.828;2023-04-25T02:56:22;19.70;45.30
40636;DHT22;26642;55.766;37.828;2023-04-25T02:58:48;19.70;45.40
40636;DHT22;26642;55.766;37.828;2023-04-25T03:01:14;19.70;45.50
40636;DHT22;26642;55.766;37.828;2023-04-25T03:03:40;19.70;45.40
40636;DHT22;26642;55.766;37.828;2023-04-25T03:06:06;19.70;45.50
40636;DHT22;26642;55.766;37.828;2023-04-25T03:08:32;19.60;45.50
40636;DHT22;26642;55.766;37.828;2023-04-25T03:11:01;19.70;45.50
40636;DHT22;26642;55.766;37.828;2023-04-25T03:13:27;19.70;45.50
40636;DHT22;26642;55.766;37.828;2023-04-25T03:15:55;19.70;45.60
40636;DHT22;26642;55.766;37.828;2023-04-25T03:18:21;19.70;45.80
40636;DHT22;26642;55.766;37.828;2023-04-25T03:20:47;19.70;45.80
40636;DHT22;26642;55.766;37.828;2023-04-25T03:23:13;19.70;45.90
40636;DHT22;26642;55.766;37.828;2023-04-25T03:25:41;19.70;45.90
40636;DHT22;26642;55.766;37.828;2023-04-25T03:28:07;19.60;45.90
40636;DHT22;26642;55.766;37.828;2023-04-25T03:30:34;19.70;46.10
40636;DHT22;26642;55.766;37.828;2023-04-25T03:33:00;19.70;46.10
40636;DHT22;26642;55.766;37.828;2023-04-25T03:35:26;19.70;46.30
40636;DHT22;26642;55.766;37.828;2023-04-25T03:37:52;19.70;46.30
40636;DHT22;26642;55.766;37.828;2023-04-25T03:40:24;19.70;46.40
40636;DHT22;26642;55.766;37.828;2023-04-25T03:43:06;19.70;46.40
40636;DHT22;26642;55.766;37.828;2023-04-25T03:45:33;19.70;46.40
40636;DHT22;26642;55.766;37.828;2023-04-25T03:47:59;19.70;46.40
40636;DHT22;26642;55.766;37.828;2023-04-25T03:50:28;19.70;46.60
40636;DHT22;26642;55.766;37.828;2023-04-25T03:52:54;19.70;46.70
40636;DHT22;26642;55.766;37.828;2023-04-25T03:55:21;19.70;46.70
40636;DHT22;26642;55.766;37.828;2023-04-25T03:57:47;19.70;46.90
40636;DHT22;26642;55.766;37.828;2023-04-25T04:00:13;19.70;46.90
40636;DHT22;26642;55.766;37.828;2023-04-25T04:02:39;19.70;47.10
40636;DHT22;26642;55.766;37.828;2023-04-25T04:05:07;19.70;47.00
40636;DHT22;26642;55.766;37.828;2023-04-25T04:07:36;19.70;47.20
40636;DHT22;26642;55.766;37.828;2023-04-25T04:10:07;19.70;47.30
40636;DHT22;26642;55.766;37.828;2023-04-25T04:12:36;19.70;47.30
40636;DHT22;26642;55.766;37.828;2023-04-25T04:15:04;19.70;47.40
40636;DHT22;26642;55.766;37.828;2023-04-25T04:17:30;19.70;47.40
40636;DHT22;26642;55.766;37.828;2023-04-25T04:19:57;19.70;47.40
40636;DHT22;26642;55.766;37.828;2023-04-25T04:22:23;19.80;47.60
40636;DHT22;26642;55.766;37.828;2023-04-25T04:24:51;19.90;47.70
40636;DHT22;26642;55.766;37.828;2023-04-25T04:27:23;19.90;47.60
40636;DHT22;26642;55.766;37.828;2023-04-25T04:30:08;20.00;47.60
40636;DHT22;26642;55.766;37.828;2023-04-25T04:32:38;20.20;47.50
40636;DHT22;26642;55.766;37.828;2023-04-25T04:35:05;20.30;47.10
40636;DHT22;26642;55.766;37.828;2023-04-25T04:37:32;20.40;47.00
40636;DHT22;26642;55.766;37.828;2023-04-25T04:40:01;20.60;47.50
40636;DHT22;26642;55.766;37.828;2023-04-25T04:42:45;20.70;46.60
40636;DHT22;26642;55.766;37.828;2023-04-25T04:45:40;20.90;46.40
40636;DHT22;26642;55.766;37.828;2023-04-25T04:48:26;21.10;46.40
40636;DHT22;26642;55.766;37.828;2023-04-25T04:51:14;21.20;46.40
40636;DHT22;26642;55.766;37.828;2023-04-25T04:53:45;21.30;46.30
40636;DHT22;26642;55.766;37.828;2023-04-25T04:56:26;21.40;46.10
40636;DHT22;26642;55.766;37.828;2023-04-25T04:59:15;21.60;46.20
40636;DHT22;26642;55.766;37.828;2023-04-25T05:01:58;21.70;45.90
40636;DHT22;26642;55.766;37.828;2023-04-25T05:04:44;21.80;45.80
40636;DHT22;26642;55.766;37.828;2023-04-25T05:07:34;22.00;45.70
40636;DHT22;26642;55.766;37.828;2023-04-25T05:10:29;22.10;45.40
40636;DHT22;26642;55.766;37.828;2023-04-25T05:13:17;22.30;45.10
40636;DHT22;26642;55.766;37.828;2023-04-25T05:16:02;22.40;44.90
40636;DHT22;26642;55.766;37.828;2023-04-25T05:18:55;22.50;44.40
40636;DHT22;26642;55.766;37.828;2023-04-25T05:21:43;22.70;44.20
40636;DHT22;26642;55.766;37.828;2023-04-25T05:24:21;22.80;44.00
40636;DHT22;26642;55.766;37.828;2023-04-25T05:27:17;22.90;43.70
40636;DHT22;26642;55.766;37.828;2023-04-25T05:30:19;23.10;43.40
40636;DHT22;26642;55.766;37.828;2023-04-25T05:33:11;23.10;43.30
40636;DHT22;26642;55.766;37.828;2023-04-25T05:35:38;23.20;43.30
40636;DHT22;26642;55.766;37.828;2023-04-25T05:38:04;23.20;43.30
40636;DHT22;26642;55.766;37.828;2023-04-25T05:40:48;23.20;43.10
40636;DHT22;26642;55.766;37.828;2023-04-25T05:43:33;23.30;42.90
40636;DHT22;26642;55.766;37.828;2023-04-25T05:46:10;23.50;42.70
40636;DHT22;26642;55.766;37.828;2023-04-25T05:48:45;23.60;42.60
40636;DHT22;26642;55.766;37.828;2023-04-25T05:51:37;23.70;42.40
40636;DHT22;26642;55.766;37.828;2023-04-25T05:54:21;23.90;42.00
40636;DHT22;26642;55.766;37.828;2023-04-25T05:56:47;24.00;41.90
40636;DHT22;26642;55.766;37.828;2023-04-25T05:59:13;24.20;42.10
40636;DHT22;26642;55.766;37.828;2023-04-25T06:01:39;24.50;41.50
40636;DHT22;26642;55.766;37.828;2023-04-25T06:04:05;24.80;41.30
40636;DHT22;26642;55.766;37.828;2023-04-25T06:06:32;25.10;41.20
40636;DHT22;26642;55.766;37.828;2023-04-25T06:08:58;25.40;40.80
40636;DHT22;26642;55.766;37.828;2023-04-25T06:11:24;25.60;40.30
40636;DHT22;26642;55.766;37.828;2023-04-25T06:13:51;25.80;40.10
40636;DHT22;26642;55.766;37.828;2023-04-25T06:16:17;26.00;40.00
40636;DHT22;26642;55.766;37.828;2023-04-25T06:18:43;26.10;39.80
40636;DHT22;26642;55.766;37.828;2023-04-25T06:21:09;26.30;39.50
40636;DHT22;26642;55.766;37.828;2023-04-25T06:23:35;26.40;39.30
40636;DHT22;26642;55.766;37.828;2023-04-25T06:26:06;26.60;39.20
40636;DHT22;26642;55.766;37.828;2023-04-25T06:28:35;26.80;39.00
40636;DHT22;26642;55.766;37.828;2023-04-25T06:31:01;26.90;38.90
40636;DHT22;26642;55.766;37.828;2023-04-25T06:33:30;27.00;39.40
40636;DHT22;26642;55.766;37.828;2023-04-25T06:35:56;27.10;39.10
40636;DHT22;26642;55.766;37.828;2023-04-25T06:38:25;27.30;39.20
40636;DHT22;26642;55.766;37.828;2023-04-25T06:40:52;27.40;38.90
40636;DHT22;26642;55.766;37.828;2023-04-25T06:43:19;27.50;38.30
40636;DHT22;26642;55.766;37.828;2023-04-25T06:46:03;27.60;38.20
40636;DHT22;26642;55.766;37.828;2023-04-25T06:48:31;27.70;38.20
40636;DHT22;26642;55.766;37.828;2023-04-25T06:50:58;27.80;38.20
40636;DHT22;26642;55.766;37.828;2023-04-25T06:53:25;27.90;38.20
40636;DHT22;26642;55.766;37.828;2023-04-25T06:55:57;27.90;37.80
40636;DHT22;26642;55.766;37.828;2023-04-25T06:58:27;28.00;38.00
40636;DHT22;26642;55.766;37.828;2023-04-25T07:01:09;28.10;38.20
40636;DHT22;26642;55.766;37.828;2023-04-25T07:03:35;28.20;37.80
40636;DHT22;26642;55.766;37.828;2023-04-25T07:06:07;28.30;38.70
40636;DHT22;26642;55.766;37.828;2023-04-25T07:08:33;28.30;38.90
40636;DHT22;26642;55.766;37.828;2023-04-25T07:10:59;28.30;38.40
40636;DHT22;26642;55.766;37.828;2023-04-25T07:13:25;28.30;39.10
40636;DHT22;26642;55.766;37.828;2023-04-25T07:15:51;28.40;37.90
40636;DHT22;26642;55.766;37.828;2023-04-25T07:18:19;28.40;38.00
40636;DHT22;26642;55.766;37.828;2023-04-25T07:20:45;28.50;39.90
40636;DHT22;26642;55.766;37.828;2023-04-25T07:23:12;28.50;37.70
40636;DHT22;26642;55.766;37.828;2023-04-25T07:25:38;28.50;37.10
40636;DHT22;26642;55.766;37.828;2023-04-25T07:28:05;28.50;36.40
40636;DHT22;26642;55.766;37.828;2023-04-25T07:30:31;28.40;36.10
40636;DHT22;26642;55.766;37.828;2023-04-25T07:32:57;28.50;36.90
40636;DHT22;26642;55.766;37.828;2023-04-25T07:35:24;28.50;36.50
40636;DHT22;26642;55.766;37.828;2023-04-25T07:37:49;28.50;36.50
40636;DHT22;26642;55.766;37.828;2023-04-25T07:40:18;28.40;36.50
40636;DHT22;26642;55.766;37.828;2023-04-25T07:42:48;28.40;37.80
40636;DHT22;26642;55.766;37.828;2023-04-25T07:45:19;28.30;38.40
40636;DHT22;26642;55.766;37.828;2023-04-25T07:47:45;28.20;37.50
40636;DHT22;26642;55.766;37.828;2023-04-25T07:50:12;28.10;37.10
40636;DHT22;26642;55.766;37.828;2023-04-25T07:52:38;28.00;37.00
40636;DHT22;26642;55.766;37.828;2023-04-25T07:55:16;27.80;37.20
40636;DHT22;26642;55.766;37.828;2023-04-25T07:57:55;27.70;37.80
40636;DHT22;26642;55.766;37.828;2023-04-25T08:00:21;27.70;38.40
40636;DHT22;26642;55.766;37.828;2023-04-25T08:02:54;27.60;38.10
40636;DHT22;26642;55.766;37.828;2023-04-25T08:05:20;27.50;38.20
40636;DHT22;26642;55.766;37.828;2023-04-25T08:07:51;27.40;38.30
40636;DHT22;26642;55.766;37.828;2023-04-25T08:10:18;27.40;38.50
40636;DHT22;26642;55.766;37.828;2023-04-25T08:12:43;27.30;38.30
40636;DHT22;26642;55.766;37.828;2023-04-25T08:15:10;27.20;38.60
40636;DHT22;26642;55.766;37.828;2023-04-25T08:17:38;27.10;38.30
40636;DHT22;26642;55.766;37.828;2023-04-25T08:20:06;27.10;38.30
40636;DHT22;26642;55.766;37.828;2023-04-25T08:22:33;27.00;38.30
40636;DHT22;26642;55.766;37.828;2023-04-25T08:25:20;26.90;38.50
40636;DHT22;26642;55.766;37.828;2023-04-25T08:27:47;26.80;38.10
40636;DHT22;26642;55.766;37.828;2023-04-25T08:30:15;26.70;38.40
40636;DHT22;26642;55.766;37.828;2023-04-25T08:32:42;26.60;38.50
40636;DHT22;26642;55.766;37.828;2023-04-25T08:35:28;26.60;38.70
40636;DHT22;26642;55.766;37.828;2023-04-25T08:37:55;26.50;39.20
40636;DHT22;26642;55.766;37.828;2023-04-25T08:40:22;26.50;39.10
40636;DHT22;26642;55.766;37.828;2023-04-25T08:42:57;26.50;39.20
40636;DHT22;26642;55.766;37.828;2023-04-25T08:45:27;26.40;39.00
40636;DHT22;26642;55.766;37.828;2023-04-25T08:47:53;26.30;39.00
40636;DHT22;26642;55.766;37.828;2023-04-25T08:50:22;26.30;39.10
40636;DHT22;26642;55.766;37.828;2023-04-25T08:52:52;26.20;39.50
40636;DHT22;26642;55.766;37.828;2023-04-25T08:55:18;26.10;39.30
40636;DHT22;26642;55.766;37.828;2023-04-25T08:57:48;26.00;39.40
40636;DHT22;26642;55.766;37.828;2023-04-25T09:00:16;26.00;39.40
40636;DHT22;26642;55.766;37.828;2023-04-25T09:02:46;26.00;39.70
40636;DHT22;26642;55.766;37.828;2023-04-25T09:05:13;25.80;39.50
40636;DHT22;26642;55.766;37.828;2023-04-25T09:07:40;25.80;39.50
40636;DHT22;26642;55.766;37.828;2023-04-25T09:10:06;25.80;39.90
40636;DHT22;26642;55.766;37.828;2023-04-25T09:12:36;25.70;39.40
40636;DHT22;26642;55.766;37.828;2023-04-25T09:15:05;25.70;39.40
40636;DHT22;26642;55.766;37.828;2023-04-25T09:18:04;25.60;39.50
40636;DHT22;26642;55.766;37.828;2023-04-25T09:20:44;25.50;39.20
40636;DHT22;26642;55.766;37.828;2023-04-25T09:23:10;25.50;39.20
40636;DHT22;26642;55.766;37.828;2023-04-25T09:25:38;25.50;39.60
40636;DHT22;26642;55.766;37.828;2023-04-25T09:28:09;25.40;39.10
40636;DHT22;26642;55.766;37.828;2023-04-25T09:30:36;25.30;39.00
40636;DHT22;26642;55.766;37.828;2023-04-25T09:33:30;25.30;39.20
40636;DHT22;26642;55.766;37.828;2023-04-25T09:36:17;25.30;39.00
40636;DHT22;26642;55.766;37.828;2023-04-25T09:39:12;25.30;39.40
40636;DHT22;26642;55.766;37.828;2023-04-25T09:41:44;25.20;39.00
40636;DHT22;26642;55.766;37.828;2023-04-25T09:44:13;25.20;38.70
40636;DHT22;26642;55.766;37.828;2023-04-25T09:46:41;25.20;38.80
40636;DHT22;26642;55.766;37.828;2023-04-25T09:49:16;25.10;38.60
40636;DHT22;26642;55.766;37.828;2023-04-25T09:51:58;25.10;37.50
40636;DHT22;26642;55.766;37.828;2023-04-25T09:54:30;24.80;36.80
40636;DHT22;26642;55.766;37.828;2023-04-25T09:57:15;24.70;37.10
40636;DHT22;26642;55.766;37.828;2023-04-25T09:59:52;24.70;37.30
40636;DHT22;26642;55.766;37.828;2023-04-25T10:02:24;24.70;37.50
40636;DHT22;26642;55.766;37.828;2023-04-25T10:04:55;24.70;37.60
40636;DHT22;26642;55.766;37.828;2023-04-25T10:07:29;24.70;37.70
40636;DHT22;26642;55.766;37.828;2023-04-25T10:10:01;24.60;37.50
40636;DHT22;26642;55.766;37.828;2023-04-25T10:12:29;24.60;37.60
40636;DHT22;26642;55.766;37.828;2023-04-25T10:14:59;24.60;37.70
40636;DHT22;26642;55.766;37.828;2023-04-25T10:17:28;24.60;37.60
40636;DHT22;26642;55.766;37.828;2023-04-25T10:19:55;24.60;37.50
40636;DHT22;26642;55.766;37.828;2023-04-25T10:22:41;24.60;37.30
40636;DHT22;26642;55.766;37.828;2023-04-25T10:25:08;24.60;37.30
40636;DHT22;26642;55.766;37.828;2023-04-25T10:27:35;24.50;37.40
40636;DHT22;26642;55.766;37.828;2023-04-25T10:30:09;24.50;37.70
40636;DHT22;26642;55.766;37.828;2023-04-25T10:32:38;24.50;37.80
40636;DHT22;26642;55.766;37.828;2023-04-25T10:35:15;24.50;37.40
40636;DHT22;26642;55.766;37.828;2023-04-25T10:38:02;24.50;37.40
40636;DHT22;26642;55.766;37.828;2023-04-25T10:40:29;24.40;37.50
40636;DHT22;26642;55.766;37.828;2023-04-25T10:42:55;24.40;37.10
40636;DHT22;26642;55.766;37.828;2023-04-25T10:45:51;24.40;37.10
40636;DHT22;26642;55.766;37.828;2023-04-25T10:48:28;24.40;37.30
40636;DHT22;26642;55.766;37.828;2023-04-25T10:51:10;24.40;37.30
40636;DHT22;26642;55.766;37.828;2023-04-25T10:53:37;24.30;37.30
40636;DHT22;26642;55.766;37.828;2023-04-25T10:56:24;24.30;37.60
40636;DHT22;26642;55.766;37.828;2023-04-25T10:58:50;24.30;37.80
40636;DHT22;26642;55.766;37.828;2023-04-25T11:01:21;24.20;37.60
40636;DHT22;26642;55.766;37.828;2023-04-25T11:03:47;24.20;37.40
40636;DHT22;26642;55.766;37.828;2023-04-25T11:06:46;24.20;37.60
40636;DHT22;26642;55.766;37.828;2023-04-25T11:09:17;24.20;37.70
40636;DHT22;26642;55.766;37.828;2023-04-25T11:11:54;24.10;37.70
40636;DHT22;26642;55.766;37.828;2023-04-25T11:14:20;24.10;37.70
40636;DHT22;26642;55.766;37.828;2023-04-25T11:16:47;24.10;37.30
40636;DHT22;26642;55.766;37.828;2023-04-25T11:19:20;24.10;38.00
40636;DHT22;26642;55.766;37.828;2023-04-25T11:21:46;24.00;38.40
40636;DHT22;26642;55.766;37.828;2023-04-25T11:24:12;24.00;38.20
40636;DHT22;26642;55.766;37.828;2023-04-25T11:26:38;24.00;38.10
40636;DHT22;26642;55.766;37.828;2023-04-25T11:29:04;24.00;38.10
40636;DHT22;26642;55.766;37.828;2023-04-25T11:31:30;24.00;38.40
40636;DHT22;26642;55.766;37.828;2023-04-25T11:33:59;24.00;39.20
40636;DHT22;26642;55.766;37.828;2023-04-25T11:36:26;24.00;39.50
40636;DHT22;26642;55.766;37.828;2023-04-25T11:38:53;24.00;39.40
40636;DHT22;26642;55.766;37.828;2023-04-25T11:41:22;23.90;39.50
40636;DHT22;26642;55.766;37.828;2023-04-25T11:43:48;23.90;39.50
40636;DHT22;26642;55.766;37.828;2023-04-25T11:46:15;23.90;39.30
40636;DHT22;26642;55.766;37.828;2023-04-25T11:48:42;23.90;39.40
40636;DHT22;26642;55.766;37.828;2023-04-25T11:51:08;23.90;39.50
40636;DHT22;26642;55.766;37.828;2023-04-25T11:53:35;23.90;39.30
40636;DHT22;26642;55.766;37.828;2023-04-25T11:56:01;23.90;39.40
40636;DHT22;26642;55.766;37.828;2023-04-25T11:58:57;23.80;39.60
40636;DHT22;26642;55.766;37.828;2023-04-25T12:01:31;23.90;39.90
40636;DHT22;26642;55.766;37.828;2023-04-25T12:03:58;23.80;39.50
40636;DHT22;26642;55.766;37.828;2023-04-25T12:06:28;23.80;40.10
40636;DHT22;26642;55.766;37.828;2023-04-25T12:09:04;23.80;40.20
40636;DHT22;26642;55.766;37.828;2023-04-25T12:11:41;23.80;40.50
40636;DHT22;26642;55.766;37.828;2023-04-25T12:14:08;23.80;40.50
40636;DHT22;26642;55.766;37.828;2023-04-25T12:16:44;23.80;40.40
40636;DHT22;26642;55.766;37.828;2023-04-25T12:19:14;23.70;40.30
40636;DHT22;26642;55.766;37.828;2023-04-25T12:21:41;23.70;40.20
40636;DHT22;26642;55.766;37.828;2023-04-25T12:24:24;23.70;39.40
40636;DHT22;26642;55.766;37.828;2023-04-25T12:27:05;23.70;39.40
40636;DHT22;26642;55.766;37.828;2023-04-25T12:29:32;23.70;39.30
40636;DHT22;26642;55.766;37.828;2023-04-25T12:31:59;23.70;39.50
40636;DHT22;26642;55.766;37.828;2023-04-25T12:34:27;23.70;39.80
40636;DHT22;26642;55.766;37.828;2023-04-25T12:36:53;23.60;39.40
40636;DHT22;26642;55.766;37.828;2023-04-25T12:39:24;23.70;39.70
40636;DHT22;26642;55.766;37.828;2023-04-25T12:41:53;23.60;39.70
40636;DHT22;26642;55.766;37.828;2023-04-25T12:44:22;23.70;40.10
40636;DHT22;26642;55.766;37.828;2023-04-25T12:46:48;23.60;40.20
40636;DHT22;26642;55.766;37.828;2023-04-25T12:49:14;23.60;40.30
40636;DHT22;26642;55.766;37.828;2023-04-25T12:51:40;23.60;39.90
40636;DHT22;26642;55.766;37.828;2023-04-25T12:54:07;23.60;40.20
40636;DHT22;26642;55.766;37.828;2023-04-25T12:56:34;23.60;40.40
40636;DHT22;26642;55.766;37.828;2023-04-25T12:59:01;23.50;40.50
40636;DHT22;26642;55.766;37.828;2023-04-25T13:01:28;23.50;40.60
40636;DHT22;26642;55.766;37.828;2023-04-25T13:03:55;23.50;40.60
40636;DHT22;26642;55.766;37.828;2023-04-25T13:06:22;23.50;40.70
40636;DHT22;26642;55.766;37.828;2023-04-25T13:08:48;23.40;40.70
40636;DHT22;26642;55.766;37.828;2023-04-25T13:11:14;23.40;40.40
40636;DHT22;26642;55.766;37.828;2023-04-25T13:13:44;23.40;40.90
40636;DHT22;26642;55.766;37.828;2023-04-25T13:16:10;23.30;41.30
40636;DHT22;26642;55.766;37.828;2023-04-25T13:18:36;23.30;41.80
40636;DHT22;26642;55.766;37.828;2023-04-25T13:21:03;23.30;42.50
40636;DHT22;26642;55.766;37.828;2023-04-25T13:23:31;23.30;41.30
40636;DHT22;26642;55.766;37.828;2023-04-25T13:25:57;23.30;40.70
40636;DHT22;26642;55.766;37.828;2023-04-25T13:28:27;23.20;40.60
40636;DHT22;26642;55.766;37.828;2023-04-25T13:30:53;23.20;41.00
40636;DHT22;26642;55.766;37.828;2023-04-25T13:33:20;23.20;40.70
40636;DHT22;26642;55.766;37.828;2023-04-25T13:35:47;23.20;40.80
40636;DHT22;26642;55.766;37.828;2023-04-25T13:38:21;23.10;40.10
40636;DHT22;26642;55.766;37.828;2023-04-25T13:40:47;23.10;41.00
40636;DHT22;26642;55.766;37.828;2023-04-25T13:43:13;23.10;40.90
40636;DHT22;26642;55.766;37.828;2023-04-25T13:45:39;23.20;41.40
40636;DHT22;26642;55.766;37.828;2023-04-25T13:48:05;23.20;41.40
40636;DHT22;26642;55.766;37.828;2023-04-25T13:50:34;23.20;41.60
40636;DHT22;26642;55.766;37.828;2023-04-25T13:53:00;23.20;42.10
40636;DHT22;26642;55.766;37.828;2023-04-25T13:55:26;23.20;41.80
40636;DHT22;26642;55.766;37.828;2023-04-25T13:57:52;23.20;41.70
40636;DHT22;26642;55.766;37.828;2023-04-25T14:00:18;23.00;40.90
40636;DHT22;26642;55.766;37.828;2023-04-25T14:02:45;23.00;40.60
40636;DHT22;26642;55.766;37.828;2023-04-25T14:05:11;22.90;40.30
40636;DHT22;26642;55.766;37.828;2023-04-25T14:07:38;23.00;41.30
40636;DHT22;26642;55.766;37.828;2023-04-25T14:10:05;23.00;41.50
40636;DHT22;26642;55.766;37.828;2023-04-25T14:12:32;23.10;42.10
40636;DHT22;26642;55.766;37.828;2023-04-25T14:14:58;23.10;42.30
40636;DHT22;26642;55.766;37.828;2023-04-25T14:17:24;23.00;41.00
40636;DHT22;26642;55.766;37.828;2023-04-25T14:19:50;22.90;40.70
40636;DHT22;26642;55.766;37.828;2023-04-25T14:22:16;23.00;41.10
40636;DHT22;26642;55.766;37.828;2023-04-25T14:24:42;23.00;41.90
40636;DHT22;26642;55.766;37.828;2023-04-25T14:27:08;23.00;40.50
40636;DHT22;26642;55.766;37.828;2023-04-25T14:29:34;23.00;40.00
40636;DHT22;26642;55.766;37.828;2023-04-25T14:32:00;23.10;40.00
40636;DHT22;26642;55.766;37.828;2023-04-25T14:34:27;23.00;39.50
40636;DHT22;26642;55.766;37.828;2023-04-25T14:36:53;23.10;39.50
40636;DHT22;26642;55.766;37.828;2023-04-25T14:39:19;23.10;39.70
40636;DHT22;26642;55.766;37.828;2023-04-25T14:41:45;23.10;39.70
40636;DHT22;26642;55.766;37.828;2023-04-25T14:44:11;23.00;39.40
40636;DHT22;26642;55.766;37.828;2023-04-25T14:46:37;23.00;39.10
40636;DHT22;26642;55.766;37.828;2023-04-25T14:49:04;23.00;39.20
40636;DHT22;26642;55.766;37.828;2023-04-25T14:51:30;23.00;39.20
40636;DHT22;26642;55.766;37.828;2023-04-25T14:53:56;22.90;38.90
40636;DHT22;26642;55.766;37.828;2023-04-25T14:56:23;22.90;38.80
40636;DHT22;26642;55.766;37.828;2023-04-25T14:58:49;22.90;38.80
40636;DHT22;26642;55.766;37.828;2023-04-25T15:01:15;22.90;39.10
40636;DHT22;26642;55.766;37.828;2023-04-25T15:03:41;22.90;39.40
40636;DHT22;26642;55.766;37.828;2023-04-25T15:06:07;22.90;39.50
40636;DHT22;26642;55.766;37.828;2023-04-25T15:08:34;22.90;39.40
40636;DHT22;26642;55.766;37.828;2023-04-25T15:11:00;22.90;39.30
40636;DHT22;26642;55.766;37.828;2023-04-25T15:13:28;22.80;39.10
40636;DHT22;26642;55.766;37.828;2023-04-25T15:15:54;22.80;39.10
40636;DHT22;26642;55.766;37.828;2023-04-25T15:18:21;22.80;39.00
40636;DHT22;26642;55.766;37.828;2023-04-25T15:20:50;22.80;39.20
40636;DHT22;26642;55.766;37.828;2023-04-25T15:23:17;22.60;39.00
40636;DHT22;26642;55.766;37.828;2023-04-25T15:25:43;22.60;39.00
40636;DHT22;26642;55.766;37.828;2023-04-25T15:28:09;22.60;38.80
40636;DHT22;26642;55.766;37.828;2023-04-25T15:30:35;22.50;38.50
40636;DHT22;26642;55.766;37.828;2023-04-25T15:33:01;22.50;38.70